sensor_id;sensor_type;location;lat;lon;timestamp;temperature;humidity
23471;DHT22;11908;50.806;4.424;2022-07-22T00:00:11;17.80;99.90
23471;DHT22;11908;50.806;4.424;2022-07-22T00:02:38;17.70;99.90
23471;DHT22;11908;50.806;4.424;2022-07-22T00:05:03;17.70;99.90
23471;DHT22;11908;50.806;4.424;2022-07-22T00:07:29;17.70;99.90
23471;DHT22;11908;50.806;4.424;2022-07-22T00:09:55;17.60;99.90
23471;DHT22;11908;50.806;4.424;2022-07-22T00:12:21;17.60;99.90
23471;DHT22;11908;50.806;4.424;2022-07-22T00:14:46;17.50;99.90
23471;DHT22;11908;50.806;4.424;2022-07-22T00:17:12;17.50;99.90
23471;DHT22;11908;50.806;4.424;2022-07-22T00:19:38;17.40;99.90
23471;DHT22;11908;50.806;4.424;2022-07-22T00:22:04;17.40;99.90
23471;DHT22;11908;50.806;4.424;2022-07-22T00:24:30;17.30;99.90
23471;DHT22;11908;50.806;4.424;2022-07-22T00:26:56;17.30;99.90
23471;DHT22;11908;50.806;4.424;2022-07-22T00:29:21;17.30;99.90
23471;DHT22;11908;50.806;4.424;2022-07-22T00:31:47;17.30;99.90
23471;DHT22;11908;50.806;4.424;2022-07-22T00:34:13;17.30;99.90
23471;DHT22;11908;50.806;4.424;2022-07-22T00:36:38;17.30;99.90
23471;DHT22;11908;50.806;4.424;2022-07-22T00:39:04;17.20;99.90
23471;DHT22;11908;50.806;4.424;2022-07-22T00:41:30;17.20;99.90
23471;DHT22;11908;50.806;4.424;2022-07-22T00:44:02;17.20;99.90
23471;DHT22;11908;50.806;4.424;2022-07-22T00:46:29;17.20;99.90
23471;DHT22;11908;50.806;4.424;2022-07-22T00:48:56;17.20;99.90
23471;DHT22;11908;50.806;4.424;2022-07-22T00:51:25;17.10;99.90
23471;DHT22;11908;50.806;4.424;2022-07-22T00:53:52;17.10;99.90
23471;DHT22;11908;50.806;4.424;2022-07-22T00:56:18;17.00;99.90
23471;DHT22;11908;50.806;4.424;2022-07-22T00:58:45;17.00;99.90
23471;DHT22;11908;50.806;4.424;2022-07-22T01:01:11;16.90;99.90
23471;DHT22;11908;50.806;4.424;2022-07-22T01:03:38;16.90;99.90
23471;DHT22;11908;50.806;4.424;2022-07-22T01:06:04;16.80;99.90
23471;DHT22;11908;50.806;4.424;2022-07-22T01:08:32;16.80;99.90
23471;DHT22;11908;50.806;4.424;2022-07-22T01:11:12;16.80;99.90
23471;DHT22;11908;50.806;4.424;2022-07-22T01:13:39;16.70;99.90
23471;DHT22;11908;50.806;4.424;2022-07-22T01:16:06;16.70;99.90
23471;DHT22;11908;50.806;4.424;2022-07-22T01:18:32;16.70;99.90
23471;DHT22;11908;50.806;4.424;2022-07-22T01:20:58;16.70;99.90
23471;DHT22;11908;50.806;4.424;2022-07-22T01:23:24;16.70;99.90
23471;DHT22;11908;50.806;4.424;2022-07-22T01:25:50;16.60;99.90
23471;DHT22;11908;50.806;4.424;2022-07-22T01:28:16;16.60;99.90
23471;DHT22;11908;50.806;4.424;2022-07-22T01:30:41;16.60;99.90
23471;DHT22;11908;50.806;4.424;2022-07-22T01:33:07;16.50;99.90
23471;DHT22;11908;50.806;4.424;2022-07-22T01:35:33;16.50;99.90
23471;DHT22;11908;50.806;4.424;2022-07-22T01:37:59;16.40;99.90
23471;DHT22;11908;50.806;4.424;2022-07-22T01:40:24;16.20;99.90
23471;DHT22;11908;50.806;4.424;2022-07-22T01:42:50;16.20;99.90
23471;DHT22;11908;50.806;4.424;2022-07-22T01:45:16;16.20;99.90
23471;DHT22;11908;50.806;4.424;2022-07-22T01:47:41;16.20;99.90
23471;DHT22;11908;50.806;4.424;2022-07-22T01:50:09;16.20;99.90
23471;DHT22;11908;50.806;4.424;2022-07-22T01:52:36;16.30;99.90
23471;DHT22;11908;50.806;4.424;2022-07-22T01:55:03;16.30;99.90
23471;DHT22;11908;50.806;4.424;2022-07-22T01:57:28;16.20;99.90
23471;DHT22;11908;50.806;4.424;2022-07-22T01:59:54;16.20;99.90
23471;DHT22;11908;50.806;4.424;2022-07-22T02:02:20;16.20;99.90
23471;DHT22;11908;50.806;4.424;2022-07-22T02:04:45;16.10;99.90
23471;DHT22;11908;50.806;4.424;2022-07-22T02:07:11;16.20;99.90
23471;DHT22;11908;50.806;4.424;2022-07-22T02:09:37;16.10;99.90
23471;DHT22;11908;50.806;4.424;2022-07-22T02:12:02;16.10;99.90
23471;DHT22;11908;50.806;4.424;2022-07-22T02:14:28;16.10;99.90
23471;DHT22;11908;50.806;4.424;2022-07-22T02:16:54;16.10;99.90
23471;DHT22;11908;50.806;4.424;2022-07-22T02:19:20;16.00;99.90
23471;DHT22;11908;50.806;4.424;2022-07-22T02:21:45;16.00;99.90
23471;DHT22;11908;50.806;4.424;2022-07-22T02:24:11;16.00;99.90
23471;DHT22;11908;50.806;4.424;2022-07-22T02:26:37;16.00;99.90
23471;DHT22;11908;50.806;4.424;2022-07-22T02:29:03;16.00;99.90
23471;DHT22;11908;50.806;4.424;2022-07-22T02:31:29;16.00;99.90
23471;DHT22;11908;50.806;4.424;2022-07-22T02:33:55;15.90;99.90
23471;DHT22;11908;50.806;4.424;2022-07-22T02:36:20;15.90;99.90
23471;DHT22;11908;50.806;4.424;2022-07-22T02:38:46;15.90;99.90
23471;DHT22;11908;50.806;4.424;2022-07-22T02:41:12;15.90;99.90
23471;DHT22;11908;50.806;4.424;2022-07-22T02:43:37;15.90;99.90
23471;DHT22;11908;50.806;4.424;2022-07-22T02:46:03;15.90;99.90
23471;DHT22;11908;50.806;4.424;2022-07-22T02:48:29;15.80;99.90
23471;DHT22;11908;50.806;4.424;2022-07-22T02:50:54;15.80;99.90
23471;DHT22;11908;50.806;4.424;2022-07-22T02:53:20;15.70;99.90
23471;DHT22;11908;50.806;4.424;2022-07-22T02:55:46;15.70;99.90
23471;DHT22;11908;50.806;4.424;2022-07-22T02:58:11;15.80;99.90
23471;DHT22;11908;50.806;4.424;2022-07-22T03:00:37;15.80;99.90
23471;DHT22;11908;50.806;4.424;2022-07-22T03:03:04;15.70;99.90
23471;DHT22;11908;50.806;4.424;2022-07-22T03:05:29;15.60;99.90
23471;DHT22;11908;50.806;4.424;2022-07-22T03:07:55;15.60;99.90
23471;DHT22;11908;50.806;4.424;2022-07-22T03:10:21;15.60;99.90
23471;DHT22;11908;50.806;4.424;2022-07-22T03:12:47;15.60;99.90
23471;DHT22;11908;50.806;4.424;2022-07-22T03:15:12;15.60;99.90
23471;DHT22;11908;50.806;4.424;2022-07-22T03:17:38;15.70;99.90
23471;DHT22;11908;50.806;4.424;2022-07-22T03:20:06;15.60;99.90
23471;DHT22;11908;50.806;4.424;2022-07-22T03:22:32;15.60;99.90
23471;DHT22;11908;50.806;4.424;2022-07-22T03:24:58;15.60;99.90
23471;DHT22;11908;50.806;4.424;2022-07-22T03:27:24;15.60;99.90
23471;DHT22;11908;50.806;4.424;2022-07-22T03:29:50;15.60;99.90
23471;DHT22;11908;50.806;4.424;2022-07-22T03:32:15;15.60;99.90
23471;DHT22;11908;50.806;4.424;2022-07-22T03:34:41;15.50;99.90
23471;DHT22;11908;50.806;4.424;2022-07-22T03:37:07;15.50;99.90
23471;DHT22;11908;50.806;4.424;2022-07-22T03:39:33;15.50;99.90
23471;DHT22;11908;50.806;4.424;2022-07-22T03:41:58;15.50;99.90
23471;DHT22;11908;50.806;4.424;2022-07-22T03:44:24;15.50;99.90
23471;DHT22;11908;50.806;4.424;2022-07-22T03:46:50;15.50;99.90
23471;DHT22;11908;50.806;4.424;2022-07-22T03:49:16;15.50;99.90
23471;DHT22;11908;50.806;4.424;2022-07-22T03:51:41;15.50;99.90
23471;DHT22;11908;50.806;4.424;2022-07-22T03:54:07;15.50;99.90
23471;DHT22;11908;50.806;4.424;2022-07-22T03:56:33;15.50;99.90
23471;DHT22;11908;50.806;4.424;2022-07-22T03:58:58;15.50;99.90
23471;DHT22;11908;50.806;4.424;2022-07-22T04:01:24;15.50;99.90
23471;DHT22;11908;50.806;4.424;2022-07-22T04:03:50;15.50;99.90
23471;DHT22;11908;50.806;4.424;2022-07-22T04:06:16;15.50;99.90
23471;DHT22;11908;50.806;4.424;2022-07-22T04:08:42;15.60;99.90
23471;DHT22;11908;50.806;4.424;2022-07-22T04:11:08;15.60;99.90
23471;DHT22;11908;50.806;4.424;2022-07-22T04:13:33;15.50;99.90
23471;DHT22;11908;50.806;4.424;2022-07-22T04:15:59;15.50;99.90
23471;DHT22;11908;50.806;4.424;2022-07-22T04:18:24;15.60;99.90
23471;DHT22;11908;50.806;4.424;2022-07-22T04:20:50;15.70;99.90
23471;DHT22;11908;50.806;4.424;2022-07-22T04:23:16;15.70;99.90
23471;DHT22;11908;50.806;4.424;2022-07-22T04:25:42;15.80;99.90
23471;DHT22;11908;50.806;4.424;2022-07-22T04:28:08;15.80;99.90
23471;DHT22;11908;50.806;4.424;2022-07-22T04:30:33;15.80;99.90
23471;DHT22;11908;50.806;4.424;2022-07-22T04:32:59;16.00;99.90
23471;DHT22;11908;50.806;4.424;2022-07-22T04:35:25;16.10;99.90
23471;DHT22;11908;50.806;4.424;2022-07-22T04:37:51;16.40;99.90
23471;DHT22;11908;50.806;4.424;2022-07-22T04:40:17;16.70;99.90
23471;DHT22;11908;50.806;4.424;2022-07-22T04:42:42;17.00;99.90
23471;DHT22;11908;50.806;4.424;2022-07-22T04:45:08;17.40;99.90
23471;DHT22;11908;50.806;4.424;2022-07-22T04:47:34;17.90;99.90
23471;DHT22;11908;50.806;4.424;2022-07-22T04:50:00;18.30;99.90
23471;DHT22;11908;50.806;4.424;2022-07-22T04:52:25;18.90;99.90
23471;DHT22;11908;50.806;4.424;2022-07-22T04:54:51;19.40;99.90
23471;DHT22;11908;50.806;4.424;2022-07-22T04:57:17;19.90;99.90
23471;DHT22;11908;50.806;4.424;2022-07-22T04:59:42;20.30;99.90
23471;DHT22;11908;50.806;4.424;2022-07-22T05:02:08;20.80;99.90
23471;DHT22;11908;50.806;4.424;2022-07-22T05:04:34;21.20;99.90
23471;DHT22;11908;50.806;4.424;2022-07-22T05:06:59;21.60;99.90
23471;DHT22;11908;50.806;4.424;2022-07-22T05:09:25;21.90;99.90
23471;DHT22;11908;50.806;4.424;2022-07-22T05:11:51;22.10;99.90
23471;DHT22;11908;50.806;4.424;2022-07-22T05:14:17;22.20;99.90
23471;DHT22;11908;50.806;4.424;2022-07-22T05:16:42;22.60;99.90
23471;DHT22;11908;50.806;4.424;2022-07-22T05:19:08;22.90;99.90
23471;DHT22;11908;50.806;4.424;2022-07-22T05:21:34;23.30;99.90
23471;DHT22;11908;50.806;4.424;2022-07-22T05:24:00;23.90;99.90
23471;DHT22;11908;50.806;4.424;2022-07-22T05:26:25;24.30;99.90
23471;DHT22;11908;50.806;4.424;2022-07-22T05:28:54;24.80;99.90
23471;DHT22;11908;50.806;4.424;2022-07-22T05:31:19;25.10;99.90
23471;DHT22;11908;50.806;4.424;2022-07-22T05:33:45;25.40;99.90
23471;DHT22;11908;50.806;4.424;2022-07-22T05:36:11;25.90;99.90
23471;DHT22;11908;50.806;4.424;2022-07-22T05:38:37;26.10;99.90
23471;DHT22;11908;50.806;4.424;2022-07-22T05:41:03;26.20;99.90
23471;DHT22;11908;50.806;4.424;2022-07-22T05:43:29;26.10;99.90
23471;DHT22;11908;50.806;4.424;2022-07-22T05:45:55;26.20;99.90
23471;DHT22;11908;50.806;4.424;2022-07-22T05:48:21;26.20;99.90
23471;DHT22;11908;50.806;4.424;2022-07-22T05:50:46;26.00;99.90
23471;DHT22;11908;50.806;4.424;2022-07-22T05:53:12;25.60;99.90
23471;DHT22;11908;50.806;4.424;2022-07-22T05:55:38;25.30;99.90
23471;DHT22;11908;50.806;4.424;2022-07-22T05:58:03;24.90;99.90
23471;DHT22;11908;50.806;4.424;2022-07-22T06:00:29;24.20;99.90
23471;DHT22;11908;50.806;4.424;2022-07-22T06:02:55;23.80;99.90
23471;DHT22;11908;50.806;4.424;2022-07-22T06:05:21;23.50;99.90
23471;DHT22;11908;50.806;4.424;2022-07-22T06:07:46;23.40;99.90
23471;DHT22;11908;50.806;4.424;2022-07-22T06:10:12;23.10;99.90
23471;DHT22;11908;50.806;4.424;2022-07-22T06:12:38;23.00;99.90
23471;DHT22;11908;50.806;4.424;2022-07-22T06:15:04;23.00;99.90
23471;DHT22;11908;50.806;4.424;2022-07-22T06:17:31;23.00;99.90
23471;DHT22;11908;50.806;4.424;2022-07-22T06:19:56;22.80;99.90
23471;DHT22;11908;50.806;4.424;2022-07-22T06:22:22;22.60;99.90
23471;DHT22;11908;50.806;4.424;2022-07-22T06:24:48;22.80;99.90
23471;DHT22;11908;50.806;4.424;2022-07-22T06:27:13;22.90;99.90
23471;DHT22;11908;50.806;4.424;2022-07-22T06:29:39;23.50;99.90
23471;DHT22;11908;50.806;4.424;2022-07-22T06:32:06;23.70;99.90
23471;DHT22;11908;50.806;4.424;2022-07-22T06:34:33;23.70;99.90
23471;DHT22;11908;50.806;4.424;2022-07-22T06:36:59;24.80;99.90
23471;DHT22;11908;50.806;4.424;2022-07-22T06:39:25;25.60;99.90
23471;DHT22;11908;50.806;4.424;2022-07-22T06:41:51;25.30;99.90
23471;DHT22;11908;50.806;4.424;2022-07-22T06:44:16;24.10;99.90
23471;DHT22;11908;50.806;4.424;2022-07-22T06:46:42;24.60;99.90
23471;DHT22;11908;50.806;4.424;2022-07-22T06:49:08;24.80;99.90
23471;DHT22;11908;50.806;4.424;2022-07-22T06:51:34;24.90;99.90
23471;DHT22;11908;50.806;4.424;2022-07-22T06:54:00;25.20;99.90
23471;DHT22;11908;50.806;4.424;2022-07-22T06:56:26;26.10;99.90
23471;DHT22;11908;50.806;4.424;2022-07-22T06:58:52;27.00;99.90
23471;DHT22;11908;50.806;4.424;2022-07-22T07:01:17;27.10;99.90
23471;DHT22;11908;50.806;4.424;2022-07-22T07:03:43;27.00;99.90
23471;DHT22;11908;50.806;4.424;2022-07-22T07:06:10;25.80;99.90
23471;DHT22;11908;50.806;4.424;2022-07-22T07:08:39;25.40;99.90
23471;DHT22;11908;50.806;4.424;2022-07-22T07:11:05;24.80;99.90
23471;DHT22;11908;50.806;4.424;2022-07-22T07:13:31;24.00;99.90
23471;DHT22;11908;50.806;4.424;2022-07-22T07:15:57;23.10;99.90
23471;DHT22;11908;50.806;4.424;2022-07-22T07:18:23;22.90;99.90
23471;DHT22;11908;50.806;4.424;2022-07-22T07:20:49;22.70;99.90
23471;DHT22;11908;50.806;4.424;2022-07-22T07:23:15;22.30;99.90
23471;DHT22;11908;50.806;4.424;2022-07-22T07:25:41;22.30;99.90
23471;DHT22;11908;50.806;4.424;2022-07-22T07:28:07;22.40;99.90
23471;DHT22;11908;50.806;4.424;2022-07-22T07:30:33;22.10;99.90
23471;DHT22;11908;50.806;4.424;2022-07-22T07:32:59;22.00;99.90
23471;DHT22;11908;50.806;4.424;2022-07-22T07:35:26;22.10;99.90
23471;DHT22;11908;50.806;4.424;2022-07-22T07:37:52;21.80;99.90
23471;DHT22;11908;50.806;4.424;2022-07-22T07:40:17;21.60;99.90
23471;DHT22;11908;50.806;4.424;2022-07-22T07:42:43;21.40;99.90
23471;DHT22;11908;50.806;4.424;2022-07-22T07:45:09;21.10;99.90
23471;DHT22;11908;50.806;4.424;2022-07-22T07:47:35;20.80;99.90
23471;DHT22;11908;50.806;4.424;2022-07-22T07:50:01;20.70;99.90
23471;DHT22;11908;50.806;4.424;2022-07-22T07:52:28;20.60;99.90
23471;DHT22;11908;50.806;4.424;2022-07-22T07:54:54;20.50;99.90
23471;DHT22;11908;50.806;4.424;2022-07-22T07:57:21;20.40;99.90
23471;DHT22;11908;50.806;4.424;2022-07-22T07:59:47;20.50;99.90
23471;DHT22;11908;50.806;4.424;2022-07-22T08:02:13;20.60;99.90
23471;DHT22;11908;50.806;4.424;2022-07-22T08:04:39;20.70;99.90
23471;DHT22;11908;50.806;4.424;2022-07-22T08:07:06;20.80;99.90
23471;DHT22;11908;50.806;4.424;2022-07-22T08:09:32;20.60;99.90
23471;DHT22;11908;50.806;4.424;2022-07-22T08:11:58;20.50;99.90
23471;DHT22;11908;50.806;4.424;2022-07-22T08:14:24;20.60;99.90
23471;DHT22;11908;50.806;4.424;2022-07-22T08:16:50;20.90;99.90
23471;DHT22;11908;50.806;4.424;2022-07-22T08:19:15;21.00;99.90
23471;DHT22;11908;50.806;4.424;2022-07-22T08:21:41;21.10;99.90
23471;DHT22;11908;50.806;4.424;2022-07-22T08:24:10;21.30;99.90
23471;DHT22;11908;50.806;4.424;2022-07-22T08:26:36;21.60;99.90
23471;DHT22;11908;50.806;4.424;2022-07-22T08:29:03;21.60;99.90
23471;DHT22;11908;50.806;4.424;2022-07-22T08:31:30;21.80;99.90
23471;DHT22;11908;50.806;4.424;2022-07-22T08:34:00;21.70;99.90
23471;DHT22;11908;50.806;4.424;2022-07-22T08:36:26;21.40;99.90
23471;DHT22;11908;50.806;4.424;2022-07-22T08:38:52;21.80;99.90
23471;DHT22;11908;50.806;4.424;2022-07-22T08:41:18;22.10;99.90
23471;DHT22;11908;50.806;4.424;2022-07-22T08:43:46;22.30;99.90
23471;DHT22;11908;50.806;4.424;2022-07-22T08:46:12;22.40;99.90
23471;DHT22;11908;50.806;4.424;2022-07-22T08:48:40;22.80;99.90
23471;DHT22;11908;50.806;4.424;2022-07-22T08:51:06;23.10;99.90
23471;DHT22;11908;50.806;4.424;2022-07-22T08:53:32;23.00;99.90
23471;DHT22;11908;50.806;4.424;2022-07-22T08:55:58;23.40;99.90
23471;DHT22;11908;50.806;4.424;2022-07-22T08:58:24;23.60;99.90
23471;DHT22;11908;50.806;4.424;2022-07-22T09:01:26;23.70;99.90
23471;DHT22;11908;50.806;4.424;2022-07-22T09:03:54;22.60;99.90
23471;DHT22;11908;50.806;4.424;2022-07-22T09:06:22;22.20;99.90
23471;DHT22;11908;50.806;4.424;2022-07-22T09:08:58;22.50;99.90
23471;DHT22;11908;50.806;4.424;2022-07-22T09:11:26;22.70;99.90
23471;DHT22;11908;50.806;4.424;2022-07-22T09:13:54;22.90;99.90
23471;DHT22;11908;50.806;4.424;2022-07-22T09:16:45;22.90;99.90
23471;DHT22;11908;50.806;4.424;2022-07-22T09:19:11;23.70;99.90
23471;DHT22;11908;50.806;4.424;2022-07-22T09:21:40;23.90;99.90
23471;DHT22;11908;50.806;4.424;2022-07-22T09:24:06;23.90;99.90
23471;DHT22;11908;50.806;4.424;2022-07-22T09:26:34;23.50;99.90
23471;DHT22;11908;50.806;4.424;2022-07-22T09:29:01;23.50;99.90
23471;DHT22;11908;50.806;4.424;2022-07-22T09:31:33;24.00;99.90
23471;DHT22;11908;50.806;4.424;2022-07-22T09:33:59;24.00;99.90
23471;DHT22;11908;50.806;4.424;2022-07-22T09:36:25;24.10;99.90
23471;DHT22;11908;50.806;4.424;2022-07-22T09:38:52;24.30;99.90
23471;DHT22;11908;50.806;4.424;2022-07-22T09:41:18;24.20;99.90
23471;DHT22;11908;50.806;4.424;2022-07-22T09:43:44;24.30;99.90
23471;DHT22;11908;50.806;4.424;2022-07-22T09:46:09;24.70;99.90
23471;DHT22;11908;50.806;4.424;2022-07-22T09:48:37;25.10;99.90
23471;DHT22;11908;50.806;4.424;2022-07-22T09:51:04;25.30;99.90
23471;DHT22;11908;50.806;4.424;2022-07-22T09:53:30;24.90;99.90
23471;DHT22;11908;50.806;4.424;2022-07-22T09:55:58;24.10;99.90
23471;DHT22;11908;50.806;4.424;2022-07-22T09:58:25;23.80;99.90
23471;DHT22;11908;50.806;4.424;2022-07-22T10:00:52;23.60;99.90
23471;DHT22;11908;50.806;4.424;2022-07-22T10:03:32;24.00;99.90
23471;DHT22;11908;50.806;4.424;2022-07-22T10:05:58;24.30;99.90
23471;DHT22;11908;50.806;4.424;2022-07-22T10:08:25;24.80;99.90
23471;DHT22;11908;50.806;4.424;2022-07-22T10:10:53;24.90;99.90
23471;DHT22;11908;50.806;4.424;2022-07-22T10:13:20;25.00;99.90
23471;DHT22;11908;50.806;4.424;2022-07-22T10:15:46;25.50;99.90
23471;DHT22;11908;50.806;4.424;2022-07-22T10:18:18;24.90;99.90
23471;DHT22;11908;50.806;4.424;2022-07-22T10:20:45;25.00;99.90
23471;DHT22;11908;50.806;4.424;2022-07-22T10:23:12;25.60;99.90
23471;DHT22;11908;50.806;4.424;2022-07-22T10:28:26;26.30;99.90
23471;DHT22;11908;50.806;4.424;2022-07-22T10:30:52;27.50;99.90
23471;DHT22;11908;50.806;4.424;2022-07-22T10:33:20;28.40;99.90
23471;DHT22;11908;50.806;4.424;2022-07-22T10:36:02;28.60;99.90
23471;DHT22;11908;50.806;4.424;2022-07-22T10:38:30;29.00;99.90
23471;DHT22;11908;50.806;4.424;2022-07-22T10:41:04;28.00;99.90
23471;DHT22;11908;50.806;4.424;2022-07-22T10:43:51;28.70;99.90
23471;DHT22;11908;50.806;4.424;2022-07-22T10:46:17;29.60;99.90
23471;DHT22;11908;50.806;4.424;2022-07-22T10:51:11;29.00;99.90
23471;DHT22;11908;50.806;4.424;2022-07-22T10:56:13;28.10;99.90
23471;DHT22;11908;50.806;4.424;2022-07-22T10:58:42;29.40;99.90
23471;DHT22;11908;50.806;4.424;2022-07-22T11:01:10;29.40;99.90
23471;DHT22;11908;50.806;4.424;2022-07-22T11:03:39;28.60;99.90
23471;DHT22;11908;50.806;4.424;2022-07-22T11:06:25;27.80;99.90
23471;DHT22;11908;50.806;4.424;2022-07-22T11:09:03;27.40;99.90
23471;DHT22;11908;50.806;4.424;2022-07-22T11:11:46;27.40;99.90
23471;DHT22;11908;50.806;4.424;2022-07-22T11:16:42;26.90;99.90
23471;DHT22;11908;50.806;4.424;2022-07-22T11:19:08;27.10;99.90
23471;DHT22;11908;50.806;4.424;2022-07-22T11:21:34;26.70;99.90
23471;DHT22;11908;50.806;4.424;2022-07-22T11:24:02;26.70;99.90
23471;DHT22;11908;50.806;4.424;2022-07-22T11:26:45;26.80;99.90
23471;DHT22;11908;50.806;4.424;2022-07-22T11:29:28;26.90;99.90
23471;DHT22;11908;50.806;4.424;2022-07-22T11:31:55;26.60;99.90
23471;DHT22;11908;50.806;4.424;2022-07-22T11:34:22;26.70;99.90
23471;DHT22;11908;50.806;4.424;2022-07-22T11:36:49;27.20;99.90
23471;DHT22;11908;50.806;4.424;2022-07-22T11:39:18;27.10;99.90
23471;DHT22;11908;50.806;4.424;2022-07-22T11:41:44;26.70;99.90
23471;DHT22;11908;50.806;4.424;2022-07-22T11:44:10;26.40;99.90
23471;DHT22;11908;50.806;4.424;2022-07-22T11:46:41;26.60;99.90
23471;DHT22;11908;50.806;4.424;2022-07-22T11:49:08;26.50;99.90
23471;DHT22;11908;50.806;4.424;2022-07-22T11:51:37;25.80;99.90
23471;DHT22;11908;50.806;4.424;2022-07-22T11:54:04;25.90;99.90
23471;DHT22;11908;50.806;4.424;2022-07-22T11:56:31;25.70;99.90
23471;DHT22;11908;50.806;4.424;2022-07-22T11:58:57;25.80;99.90
23471;DHT22;11908;50.806;4.424;2022-07-22T12:01:25;25.60;99.90
23471;DHT22;11908;50.806;4.424;2022-07-22T12:03:57;25.70;99.90
23471;DHT22;11908;50.806;4.424;2022-07-22T12:06:24;26.10;99.90
23471;DHT22;11908;50.806;4.424;2022-07-22T12:08:53;26.30;99.90
23471;DHT22;11908;50.806;4.424;2022-07-22T12:11:22;25.90;99.90
23471;DHT22;11908;50.806;4.424;2022-07-22T12:13:50;25.80;99.90
23471;DHT22;11908;50.806;4.424;2022-07-22T12:16:26;26.40;99.90
23471;DHT22;11908;50.806;4.424;2022-07-22T12:19:05;26.70;99.90
23471;DHT22;11908;50.806;4.424;2022-07-22T12:21:32;26.40;99.90
23471;DHT22;11908;50.806;4.424;2022-07-22T12:24:07;26.50;99.90
23471;DHT22;11908;50.806;4.424;2022-07-22T12:26:37;26.50;99.90
23471;DHT22;11908;50.806;4.424;2022-07-22T12:32:06;25.90;99.90
23471;DHT22;11908;50.806;4.424;2022-07-22T12:36:58;26.10;99.90
23471;DHT22;11908;50.806;4.424;2022-07-22T12:39:23;26.20;99.90
23471;DHT22;11908;50.806;4.424;2022-07-22T12:41:53;26.40;99.90
23471;DHT22;11908;50.806;4.424;2022-07-22T12:44:21;26.20;99.90
23471;DHT22;11908;50.806;4.424;2022-07-22T12:46:49;25.90;99.90
23471;DHT22;11908;50.806;4.424;2022-07-22T12:49:17;25.90;99.90
23471;DHT22;11908;50.806;4.424;2022-07-22T12:54:33;26.30;99.90
23471;DHT22;11908;50.806;4.424;2022-07-22T12:56:59;26.40;99.90
23471;DHT22;11908;50.806;4.424;2022-07-22T12:59:25;26.90;99.90
23471;DHT22;11908;50.806;4.424;2022-07-22T13:01:51;26.60;99.90
23471;DHT22;11908;50.806;4.424;2022-07-22T13:04:16;26.60;99.90
23471;DHT22;11908;50.806;4.424;2022-07-22T13:06:42;26.50;99.90
23471;DHT22;11908;50.806;4.424;2022-07-22T13:09:08;26.20;99.90
23471;DHT22;11908;50.806;4.424;2022-07-22T13:11:33;25.90;99.90
23471;DHT22;11908;50.806;4.424;2022-07-22T13:14:07;26.60;99.90
23471;DHT22;11908;50.806;4.424;2022-07-22T13:16:33;26.60;99.90
23471;DHT22;11908;50.806;4.424;2022-07-22T13:18:59;26.40;99.90
23471;DHT22;11908;50.806;4.424;2022-07-22T13:21:24;26.80;99.90
23471;DHT22;11908;50.806;4.424;2022-07-22T13:23:50;27.00;99.90
23471;DHT22;11908;50.806;4.424;2022-07-22T13:26:16;27.10;99.90
23471;DHT22;11908;50.806;4.424;2022-07-22T13:28:41;27.10;99.90
23471;DHT22;11908;50.806;4.424;2022-07-22T13:31:08;26.80;99.90
23471;DHT22;11908;50.806;4.424;2022-07-22T13:33:34;26.60;99.90
23471;DHT22;11908;50.806;4.424;2022-07-22T13:36:01;26.60;99.90
23471;DHT22;11908;50.806;4.424;2022-07-22T13:38:26;26.60;99.90
23471;DHT22;11908;50.806;4.424;2022-07-22T13:40:52;26.60;99.90
23471;DHT22;11908;50.806;4.424;2022-07-22T13:43:22;26.70;99.90
23471;DHT22;11908;50.806;4.424;2022-07-22T13:45:49;26.80;99.90
23471;DHT22;11908;50.806;4.424;2022-07-22T13:48:15;26.70;99.90
23471;DHT22;11908;50.806;4.424;2022-07-22T13:50:42;27.00;99.90
23471;DHT22;11908;50.806;4.424;2022-07-22T13:53:08;27.20;99.90
23471;DHT22;11908;50.806;4.424;2022-07-22T13:55:33;26.60;99.90
23471;DHT22;11908;50.806;4.424;2022-07-22T13:57:59;26.50;99.90
23471;DHT22;11908;50.806;4.424;2022-07-22T14:00:25;26.50;99.90
23471;DHT22;11908;50.806;4.424;2022-07-22T14:02:51;26.00;99.90
23471;DHT22;11908;50.806;4.424;2022-07-22T14:05:18;25.70;99.90
23471;DHT22;11908;50.806;4.424;2022-07-22T14:07:43;25.10;99.90
23471;DHT22;11908;50.806;4.424;2022-07-22T14:10:10;25.20;99.90
23471;DHT22;11908;50.806;4.424;2022-07-22T14:12:37;25.20;99.90
23471;DHT22;11908;50.806;4.424;2022-07-22T14:15:03;25.10;99.90
23471;DHT22;11908;50.806;4.424;2022-07-22T14:17:29;25.10;99.90
23471;DHT22;11908;50.806;4.424;2022-07-22T14:19:54;25.00;99.90
23471;DHT22;11908;50.806;4.424;2022-07-22T14:22:20;24.80;99.90
23471;DHT22;11908;50.806;4.424;2022-07-22T14:24:46;24.80;99.90
23471;DHT22;11908;50.806;4.424;2022-07-22T14:27:11;24.80;99.90
23471;DHT22;11908;50.806;4.424;2022-07-22T14:29:37;24.80;99.90
23471;DHT22;11908;50.806;4.424;2022-07-22T14:32:03;24.70;99.90
23471;DHT22;11908;50.806;4.424;2022-07-22T14:34:29;24.70;99.90
23471;DHT22;11908;50.806;4.424;2022-07-22T14:36:55;24.70;99.90
23471;DHT22;11908;50.806;4.424;2022-07-22T14:39:20;24.50;99.90
23471;DHT22;11908;50.806;4.424;2022-07-22T14:41:46;24.30;99.90
23471;DHT22;11908;50.806;4.424;2022-07-22T14:44:13;24.20;99.90
23471;DHT22;11908;50.806;4.424;2022-07-22T14:46:38;24.10;99.90
23471;DHT22;11908;50.806;4.424;2022-07-22T14:49:04;24.20;99.90
23471;DHT22;11908;50.806;4.424;2022-07-22T14:51:30;24.10;99.90
23471;DHT22;11908;50.806;4.424;2022-07-22T14:53:55;24.10;99.90
23471;DHT22;11908;50.806;4.424;2022-07-22T14:56:21;24.00;99.90
23471;DHT22;11908;50.806;4.424;2022-07-22T14:58:47;24.10;99.90
23471;DHT22;11908;50.806;4.424;2022-07-22T15:01:13;23.70;99.90
23471;DHT22;11908;50.806;4.424;2022-07-22T15:03:38;23.70;99.90
23471;DHT22;11908;50.806;4.424;2022-07-22T15:06:04;23.70;99.90
23471;DHT22;11908;50.806;4.424;2022-07-22T15:08:30;23.60;99.90
23471;DHT22;11908;50.806;4.424;2022-07-22T15:10:56;23.60;99.90
23471;DHT22;11908;50.806;4.424;2022-07-22T15:13:21;23.70;99.90
23471;DHT22;11908;50.806;4.424;2022-07-22T15:15:47;23.80;99.90
23471;DHT22;11908;50.806;4.424;2022-07-22T15:18:13;23.80;99.90
23471;DHT22;11908;50.806;4.424;2022-07-22T15:20:39;23.80;99.90
23471;DHT22;11908;50.806;4.424;2022-07-22T15:23:05;23.90;99.90
23471;DHT22;11908;50.806;4.424;2022-07-22T15:25:30;24.10;99.90
23471;DHT22;11908;50.806;4.424;2022-07-22T15:27:56;24.20;99.90
23471;DHT22;11908;50.806;4.424;2022-07-22T15:30:23;24.20;99.90
23471;DHT22;11908;50.806;4.424;2022-07-22T15:32:49;24.40;99.90
23471;DHT22;11908;50.806;4.424;2022-07-22T15:35:15;24.30;99.90
23471;DHT22;11908;50.806;4.424;2022-07-22T15:37:40;24.50;99.90
23471;DHT22;11908;50.806;4.424;2022-07-22T15:40:07;24.70;99.90
23471;DHT22;11908;50.806;4.424;2022-07-22T15:42:34;24.40;99.90
23471;DHT22;11908;50.806;4.424;2022-07-22T15:44:59;24.50;99.90